Terminal Aerodrome Forecast
Issued by NWS Corpus Christi, TX

Current Version | Previous Version | Text Only | Print | Product List | Glossary Off
Versions: 1 2 3 4 5 6 7 8 9 10 11 12 13 14 15 16 17 18 19 20

000
FTUS44 KCRP 272332
TAFCRP
TAF
KCRP 272332Z 2800/2824 11010KT P6SM BKN250
     FM280300 VRB05KT P6SM FEW015
     FM281600 13012KT P6SM FEW035=

USA.gov is the U.S. government's official web portal to all federal, state and local government web resources and services.